Time;durP1;ratioP1;P1;durP2;ratioP2;P2;SDS_P1;SDS_P2;PMS_P1;PMS_P2;Temp;Humidity;BMP_temperature;BMP_pressure;BME280_temperature;BME280_humidity;BME280_pressure;Samples;Min_cycle;Max_cycle;Signal;HPM_P1;HPM_P2
2022/05/07 00:00:57;;;;;;;;;;;;;;;17.79;65.32;98640.50;2092639;28;20335;-46
2022/05/07 00:01:59;;;;;;;;;;;;;;;17.78;65.15;98638.81;2095785;28;19958;-46
2022/05/07 00:02:59;;;;;;;;;;;;;;;17.78;65.18;98642.34;2093111;28;19989;-47
2022/05/07 00:04:02;;;;;;;;;;;;;;;17.78;65.17;98652.22;2096890;28;19932;-45
2022/05/07 00:05:03;;;;;;;;;;;;;;;17.80;65.22;98651.03;2098261;28;19924;-45
2022/05/07 00:06:05;;;;;;;;;;;;;;;17.79;65.05;98643.16;2094082;28;20429;-45
2022/05/07 00:07:06;;;;;;;;;;;;;;;17.76;65.18;98648.91;2095322;28;19927;-46
2022/05/07 00:08:08;;;;;;;;;;;;;;;17.77;65.22;98655.91;2099975;28;19924;-49
2022/05/07 00:09:08;;;;;;;;;;;;;;;17.76;65.20;98648.91;2096827;28;19924;-50
2022/05/07 00:10:10;;;;;;;;;;;;;;;17.77;65.12;98650.56;2096646;28;19938;-51
2022/05/07 00:11:14;;;;;;;;;;;;;;;17.77;65.22;98650.56;2099050;28;20537;-47
2022/05/07 00:12:16;;;;;;;;;;;;;;;17.77;65.35;98645.19;2096983;28;19932;-46
2022/05/07 00:13:17;;;;;;;;;;;;;;;17.76;65.43;98649.72;2098261;28;20462;-49
2022/05/07 00:14:18;;;;;;;;;;;;;;;17.76;65.27;98643.53;2097416;28;19981;-48
2022/05/07 00:15:18;;;;;;;;;;;;;;;17.76;65.25;98639.00;2094314;28;19928;-51
2022/05/07 00:18:58;;;;;;;;;;;;;;;17.74;65.23;98645.59;2096305;28;19928;-46
2022/05/07 00:20:00;;;;;;;;;;;;;;;17.75;65.22;98650.75;2097961;28;19924;-45
2022/05/07 00:21:01;;;;;;;;;;;;;;;17.76;65.14;98649.72;2098171;28;19932;-45
2022/05/07 00:22:02;;;;;;;;;;;;;;;17.74;65.28;98638.34;2097656;28;19924;-46
2022/05/07 00:23:03;;;;;;;;;;;;;;;17.75;65.25;98637.34;2097428;28;19934;-45
2022/05/07 00:24:04;;;;;;;;;;;;;;;17.74;65.26;98640.22;2095492;28;19936;-46
2022/05/07 00:25:06;;;;;;;;;;;;;;;17.76;65.00;98639.00;2094735;28;19928;-47
2022/05/07 00:26:07;;;;;;;;;;;;;;;17.75;65.07;98633.84;2099308;28;19928;-45
2022/05/07 00:27:08;;;;;;;;;;;;;;;17.78;64.97;98636.13;2097810;28;19931;-45
2022/05/07 00:28:10;;;;;;;;;;;;;;;17.76;65.25;98632.81;2095366;28;19927;-45
2022/05/07 00:29:10;;;;;;;;;;;;;;;17.74;65.29;98634.84;2097476;28;20027;-48
2022/05/07 00:30:12;;;;;;;;;;;;;;;17.74;65.07;98641.03;2093453;28;19924;-46
2022/05/07 00:31:13;;;;;;;;;;;;;;;17.74;65.10;98634.84;2094695;28;19924;-46
2022/05/07 00:32:14;;;;;;;;;;;;;;;17.74;65.28;98633.00;2099155;28;19938;-47
2022/05/07 00:33:15;;;;;;;;;;;;;;;17.74;65.00;98624.94;2098991;28;19984;-45
2022/05/07 00:34:16;;;;;;;;;;;;;;;17.75;65.03;98621.25;2097126;28;19928;-47
2022/05/07 00:35:18;;;;;;;;;;;;;;;17.77;64.98;98629.09;2097161;28;19932;-45
2022/05/07 00:36:19;;;;;;;;;;;;;;;17.77;64.80;98629.09;2100796;28;20547;-47
2022/05/07 00:37:20;;;;;;;;;;;;;;;17.78;64.97;98630.75;2094698;28;19936;-47
2022/05/07 00:38:21;;;;;;;;;;;;;;;17.74;64.98;98616.91;2101058;28;20514;-45
2022/05/07 00:39:24;;;;;;;;;;;;;;;17.72;64.97;98620.81;2095673;28;20011;-47
2022/05/07 00:40:25;;;;;;;;;;;;;;;17.74;65.21;98618.75;2100943;28;19967;-46
2022/05/07 00:41:26;;;;;;;;;;;;;;;17.73;64.98;98619.78;2097700;28;19947;-47
2022/05/07 00:42:27;;;;;;;;;;;;;;;17.73;65.08;98620.63;2101240;28;20396;-49
2022/05/07 00:43:33;;;;;;;;;;;;;;;17.73;65.10;98617.94;2096742;28;20004;-48
2022/05/07 00:44:35;;;;;;;;;;;;;;;17.73;64.96;98619.78;2095060;28;19932;-47
2022/05/07 00:45:36;;;;;;;;;;;;;;;17.73;64.98;98614.44;2093523;28;19935;-48
2022/05/07 00:46:37;;;;;;;;;;;;;;;17.72;65.11;98620.81;2095436;28;20608;-47
2022/05/07 00:47:39;;;;;;;;;;;;;;;17.72;64.90;98631.53;2098169;28;19924;-47
2022/05/07 00:48:40;;;;;;;;;;;;;;;17.74;65.10;98618.75;2098187;28;20863;-48
2022/05/07 00:49:42;;;;;;;;;;;;;;;17.72;64.97;98627.03;2099388;28;19960;-47
2022/05/07 00:52:05;;;;;;;;;;;;;;;17.71;65.30;98633.38;2099432;28;20409;-48
2022/05/07 00:53:05;;;;;;;;;;;;;;;17.71;65.17;98636.06;2097242;28;19943;-50
2022/05/07 00:54:07;;;;;;;;;;;;;;;17.71;64.96;98630.72;2100563;28;20042;-49
2022/05/07 00:55:10;;;;;;;;;;;;;;;17.71;64.99;98630.72;2098576;28;19928;-51
2022/05/07 00:56:12;;;;;;;;;;;;;;;17.71;65.21;98635.25;2092620;28;19931;-50
2022/05/07 00:57:13;;;;;;;;;;;;;;;17.70;65.08;98634.44;2094237;28;20389;-46
2022/05/07 00:58:15;;;;;;;;;;;;;;;17.71;65.09;98632.56;2098888;28;20526;-46
2022/05/07 00:59:18;;;;;;;;;;;;;;;17.72;65.00;98636.91;2095511;28;20358;-47
2022/05/07 01:00:18;;;;;;;;;;;;;;;17.73;65.13;98641.25;2094397;28;19932;-47
2022/05/07 01:01:20;;;;;;;;;;;;;;;17.74;64.91;98634.84;2099316;28;19932;-48
2022/05/07 01:02:22;;;;;;;;;;;;;;;17.74;64.87;98640.22;2100965;28;20587;-49
2022/05/07 01:03:22;;;;;;;;;;;;;;;17.72;65.05;98636.91;2098006;28;19928;-48
2022/05/07 01:04:25;;;;;;;;;;;;;;;17.71;64.82;98643.28;2100395;28;20009;-47
2022/05/07 01:05:25;;;;;;;;;;;;;;;17.71;64.97;98643.28;2093638;28;20611;-47
2022/05/07 01:06:29;;;;;;;;;;;;;;;17.70;65.14;98642.47;2096722;28;20035;-46
2022/05/07 01:07:31;;;;;;;;;;;;;;;17.70;64.90;98634.44;2097230;28;20281;-48
2022/05/07 01:08:33;;;;;;;;;;;;;;;17.72;64.94;98635.06;2099143;28;19932;-49
2022/05/07 01:09:37;;;;;;;;;;;;;;;17.70;64.90;98639.78;2100256;28;19934;-49
2022/05/07 01:10:38;;;;;;;;;;;;;;;17.69;64.89;98632.78;2083827;28;19928;-47
2022/05/07 01:11:41;;;;;;;;;;;;;;;17.70;64.99;98628.25;2098673;28;19928;-46
2022/05/07 01:12:41;;;;;;;;;;;;;;;17.69;65.08;98629.25;2098257;28;20374;-50
2022/05/07 01:13:44;;;;;;;;;;;;;;;17.68;65.07;98620.38;2098120;28;19950;-49
2022/05/07 01:14:44;;;;;;;;;;;;;;;17.68;65.07;98630.28;2094474;28;20590;-49
2022/05/07 01:15:46;;;;;;;;;;;;;;;17.72;64.87;98618.13;2097945;28;19936;-50
2022/05/07 01:16:47;;;;;;;;;;;;;;;17.70;64.79;98615.66;2096296;28;21275;-46
2022/05/07 01:17:48;;;;;;;;;;;;;;;17.69;64.75;98632.78;2095510;28;19956;-47
2022/05/07 01:18:50;;;;;;;;;;;;;;;17.69;64.91;98622.06;2096477;28;19931;-48
2022/05/07 01:19:51;;;;;;;;;;;;;;;17.69;64.88;98622.06;2099180;28;19959;-47
2022/05/07 01:20:53;;;;;;;;;;;;;;;17.69;64.82;98615.84;2098029;28;19932;-48
2022/05/07 01:21:55;;;;;;;;;;;;;;;17.69;64.92;98623.88;2098836;28;19927;-47
2022/05/07 01:22:57;;;;;;;;;;;;;;;17.68;64.80;98620.38;2097566;28;20534;-48
2022/05/07 01:23:58;;;;;;;;;;;;;;;17.70;64.99;98618.34;2099866;28;20009;-48
2022/05/07 01:25:00;;;;;;;;;;;;;;;17.69;64.88;98615.84;2100743;28;20023;-50
2022/05/07 01:26:01;;;;;;;;;;;;;;;17.67;65.02;98618.72;2100517;28;19978;-49
2022/05/07 01:27:02;;;;;;;;;;;;;;;17.67;65.12;98617.91;2093812;28;19963;-47
2022/05/07 01:28:03;;;;;;;;;;;;;;;17.69;64.85;98621.19;2096245;28;19934;-48
2022/05/07 01:29:04;;;;;;;;;;;;;;;17.70;64.99;98617.50;2097506;28;20339;-48
2022/05/07 01:30:06;;;;;;;;;;;;;;;17.71;64.76;98617.28;2098808;28;19930;-47
2022/05/07 01:31:08;;;;;;;;;;;;;;;17.70;64.80;98617.50;2098281;28;20038;-47
2022/05/07 01:32:08;;;;;;;;;;;;;;;17.69;64.97;98624.75;2101056;28;19939;-47
2022/05/07 01:33:10;;;;;;;;;;;;;;;17.70;64.87;98614.84;2097085;28;19934;-49
2022/05/07 01:34:11;;;;;;;;;;;;;;;17.71;64.78;98616.47;2100572;28;19928;-49
2022/05/07 01:35:12;;;;;;;;;;;;;;;17.67;64.89;98618.72;2100690;28;20597;-47
2022/05/07 01:36:18;;;;;;;;;;;;;;;17.67;64.84;98618.72;2096319;28;19934;-47
2022/05/07 01:37:20;;;;;;;;;;;;;;;17.67;64.90;98613.38;2098750;28;20442;-46
2022/05/07 01:38:21;;;;;;;;;;;;;;;17.69;64.91;98621.19;2099898;28;19924;-48
2022/05/07 01:39:22;;;;;;;;;;;;;;;17.66;65.17;98617.06;2099039;28;20352;-47
2022/05/07 01:40:24;;;;;;;;;;;;;;;17.69;65.08;98624.75;2099274;28;19925;-49
2022/05/07 01:41:24;;;;;;;;;;;;;;;17.68;64.88;98625.75;2092123;28;19924;-49
2022/05/07 01:42:26;;;;;;;;;;;;;;;17.68;64.94;98614.19;2099130;28;19932;-47
2022/05/07 01:43:27;;;;;;;;;;;;;;;17.69;64.83;98623.88;2097577;28;19924;-47
2022/05/07 01:44:29;;;;;;;;;;;;;;;17.68;64.85;98619.56;2096621;28;19928;-48
2022/05/07 01:45:29;;;;;;;;;;;;;;;17.67;64.79;98617.91;2096257;28;19924;-48
2022/05/07 01:49:07;;;;;;;;;;;;;;;17.68;64.82;98625.75;2081967;28;19931;-47
2022/05/07 01:50:08;;;;;;;;;;;;;;;17.68;64.70;98624.91;2098994;28;19935;-47
2022/05/07 01:51:11;;;;;;;;;;;;;;;17.66;64.77;98617.06;2097035;28;19924;-50
2022/05/07 01:52:11;;;;;;;;;;;;;;;17.68;64.85;98619.56;2098758;28;19940;-47
2022/05/07 01:53:14;;;;;;;;;;;;;;;17.66;64.97;98622.41;2097983;28;20320;-51
2022/05/07 01:54:15;;;;;;;;;;;;;;;17.66;64.81;98625.09;2096100;28;20019;-47
2022/05/07 01:55:16;;;;;;;;;;;;;;;17.67;65.02;98628.63;2099891;28;19924;-47
2022/05/07 01:56:18;;;;;;;;;;;;;;;17.64;64.95;98630.69;2094151;28;20633;-48
2022/05/07 01:57:18;;;;;;;;;;;;;;;17.63;65.08;98622.81;2096783;28;19924;-47
2022/05/07 01:58:20;;;;;;;;;;;;;;;17.65;65.04;98618.91;2096592;28;19936;-47
2022/05/07 01:59:20;;;;;;;;;;;;;;;17.65;65.03;98626.97;2096040;28;20524;-47
2022/05/07 02:00:22;;;;;;;;;;;;;;;17.65;64.94;98623.47;2095449;28;19959;-48
2022/05/07 02:01:23;;;;;;;;;;;;;;;17.65;64.74;98620.78;2092974;28;19935;-47
2022/05/07 02:02:24;;;;;;;;;;;;;;;17.65;65.01;98621.59;2101725;28;19934;-47
2022/05/07 02:03:25;;;;;;;;;;;;;;;17.66;64.87;98617.06;2097454;28;19936;-47
2022/05/07 02:04:26;;;;;;;;;;;;;;;17.67;64.71;98613.38;2101826;28;20406;-48
2022/05/07 02:05:27;;;;;;;;;;;;;;;17.64;64.71;98609.22;2098915;28;19972;-47
2022/05/07 02:06:29;;;;;;;;;;;;;;;17.65;64.86;98615.41;2099566;28;19924;-51
2022/05/07 02:07:30;;;;;;;;;;;;;;;17.65;64.99;98610.88;2095846;28;19925;-51
2022/05/07 02:08:33;;;;;;;;;;;;;;;17.67;64.93;98617.91;2099403;28;19932;-51
2022/05/07 02:09:33;;;;;;;;;;;;;;;17.64;64.88;98616.44;2094912;28;19928;-50
2022/05/07 02:10:35;;;;;;;;;;;;;;;17.65;64.75;98620.78;2101175;28;19932;-51
2022/05/07 02:11:35;;;;;;;;;;;;;;;17.62;64.89;98624.69;2083363;28;20008;-52
2022/05/07 02:12:37;;;;;;;;;;;;;;;17.63;64.77;98629.03;2093741;28;19931;-47
2022/05/07 02:13:37;;;;;;;;;;;;;;;17.64;64.87;98624.50;2097009;28;19928;-52
2022/05/07 02:14:39;;;;;;;;;;;;;;;17.63;64.88;98631.72;2098610;28;20290;-50
2022/05/07 02:15:39;;;;;;;;;;;;;;;17.62;64.91;98631.91;2100646;28;19935;-48
2022/05/07 02:16:41;;;;;;;;;;;;;;;17.64;64.81;98616.44;2100403;28;20607;-53
2022/05/07 02:17:42;;;;;;;;;;;;;;;17.62;64.89;98622.00;2090793;28;19928;-47
2022/05/07 02:18:44;;;;;;;;;;;;;;;17.61;64.70;98609.63;2098385;28;20654;-47
2022/05/07 02:19:44;;;;;;;;;;;;;;;17.62;64.73;98619.31;2096455;28;19931;-50
2022/05/07 02:20:46;;;;;;;;;;;;;;;17.61;64.95;98604.25;2097549;28;19928;-49
2022/05/07 02:21:46;;;;;;;;;;;;;;;17.61;64.83;98614.16;2096917;28;20417;-49
2022/05/07 02:22:48;;;;;;;;;;;;;;;17.61;64.80;98608.81;2099522;28;19939;-53
2022/05/07 02:23:50;;;;;;;;;;;;;;;17.60;64.98;98610.63;2099403;28;19928;-51
2022/05/07 02:24:52;;;;;;;;;;;;;;;17.62;64.81;98613.13;2099243;28;19928;-46
2022/05/07 02:25:53;;;;;;;;;;;;;;;17.62;64.79;98610.44;2102346;28;19928;-49
2022/05/07 02:26:54;;;;;;;;;;;;;;;17.62;64.75;98610.44;2094572;28;19928;-48
2022/05/07 02:27:55;;;;;;;;;;;;;;;17.63;64.78;98615.63;2100567;28;19924;-46
2022/05/07 02:28:56;;;;;;;;;;;;;;;17.61;64.71;98609.63;2094030;28;19932;-50
2022/05/07 02:29:58;;;;;;;;;;;;;;;17.63;64.77;98618.31;2096216;28;19925;-49
2022/05/07 02:30:58;;;;;;;;;;;;;;;17.62;64.68;98613.94;2099584;28;19936;-51
2022/05/07 02:32:06;;;;;;;;;;;;;;;17.62;64.87;98615.81;2100943;28;20402;-48
2022/05/07 02:33:06;;;;;;;;;;;;;;;17.62;64.67;98621.19;2096444;28;19925;-47
2022/05/07 02:34:08;;;;;;;;;;;;;;;17.63;64.62;98615.63;2102364;28;20517;-45
2022/05/07 02:35:09;;;;;;;;;;;;;;;17.61;64.83;98617.66;2099208;28;19928;-51
2022/05/07 02:36:10;;;;;;;;;;;;;;;17.62;64.88;98626.53;2101768;28;19981;-49
2022/05/07 02:37:11;;;;;;;;;;;;;;;17.61;64.81;98624.91;2096391;28;20945;-52
2022/05/07 02:38:12;;;;;;;;;;;;;;;17.61;64.88;98627.56;2092490;28;19981;-45
2022/05/07 02:39:14;;;;;;;;;;;;;;;17.61;64.78;98619.53;2099798;28;20239;-51
2022/05/07 02:40:16;;;;;;;;;;;;;;;17.60;64.76;98618.69;2099280;28;20002;-52
2022/05/07 02:42:39;;;;;;;;;;;;;;;17.62;64.74;98605.09;2098029;28;19928;-48
2022/05/07 02:43:40;;;;;;;;;;;;;;;17.62;64.74;98605.09;2098378;28;19928;-49
2022/05/07 02:44:41;;;;;;;;;;;;;;;17.63;64.61;98612.09;2098416;28;19932;-53
2022/05/07 02:45:42;;;;;;;;;;;;;;;17.62;64.86;98605.09;2093164;28;20446;-51
2022/05/07 02:46:44;;;;;;;;;;;;;;;17.61;64.67;98612.31;2098728;28;19924;-53
2022/05/07 02:47:44;;;;;;;;;;;;;;;17.61;64.60;98609.63;2096754;28;20007;-47
2022/05/07 02:48:46;;;;;;;;;;;;;;;17.62;64.65;98613.94;2099856;28;20499;-51
2022/05/07 02:49:47;;;;;;;;;;;;;;;17.61;64.61;98604.25;2094816;28;19959;-50
2022/05/07 02:50:48;;;;;;;;;;;;;;;17.61;64.67;98603.44;2094745;28;19939;-51
2022/05/07 02:51:49;;;;;;;;;;;;;;;17.61;64.80;98608.81;2092209;28;19939;-47
2022/05/07 02:52:50;;;;;;;;;;;;;;;17.59;64.66;98608.97;2099210;28;20007;-53
2022/05/07 02:53:51;;;;;;;;;;;;;;;17.59;64.95;98611.66;2097656;28;20423;-49
2022/05/07 02:54:54;;;;;;;;;;;;;;;17.60;64.67;98607.13;2100460;28;19935;-54
2022/05/07 02:55:55;;;;;;;;;;;;;;;17.60;64.85;98597.22;2096211;28;20015;-51
2022/05/07 02:56:57;;;;;;;;;;;;;;;17.59;64.81;98590.22;2097100;28;19940;-52
2022/05/07 02:57:57;;;;;;;;;;;;;;;17.59;64.64;98594.75;2096212;28;19925;-48
2022/05/07 02:58:59;;;;;;;;;;;;;;;17.59;64.67;98590.22;2098826;28;19928;-52
2022/05/07 02:59:59;;;;;;;;;;;;;;;17.60;64.78;98591.84;2094652;28;20015;-49
2022/05/07 03:01:01;;;;;;;;;;;;;;;17.60;64.75;98586.50;2099861;28;19931;-53
2022/05/07 03:02:01;;;;;;;;;;;;;;;17.60;64.63;98597.22;2097135;28;19943;-45
2022/05/07 03:03:03;;;;;;;;;;;;;;;17.60;64.69;98591.84;2098493;28;20027;-54
2022/05/07 03:04:04;;;;;;;;;;;;;;;17.60;64.59;98591.84;2098763;28;20562;-46
2022/05/07 03:05:06;;;;;;;;;;;;;;;17.60;64.72;98591.03;2096756;28;19957;-50
2022/05/07 03:06:06;;;;;;;;;;;;;;;17.58;64.66;98588.56;2099845;28;19927;-51
2022/05/07 03:07:08;;;;;;;;;;;;;;;17.58;64.78;98588.56;2098332;28;19953;-52
2022/05/07 03:08:08;;;;;;;;;;;;;;;17.58;64.79;98590.44;2101948;28;20493;-49
2022/05/07 03:09:10;;;;;;;;;;;;;;;17.59;64.62;98584.84;2099981;28;19928;-51
2022/05/07 03:10:12;;;;;;;;;;;;;;;17.60;64.79;98588.34;2098233;28;19924;-47
2022/05/07 03:11:13;;;;;;;;;;;;;;;17.58;64.79;98577.84;2095079;28;20353;-45
2022/05/07 03:12:15;;;;;;;;;;;;;;;17.60;64.79;98572.25;2096693;28;19980;-48
2022/05/07 03:13:16;;;;;;;;;;;;;;;17.59;64.85;98576.81;2096602;28;19932;-50
2022/05/07 03:14:17;;;;;;;;;;;;;;;17.58;64.71;98572.47;2101713;28;20019;-45
2022/05/07 03:15:18;;;;;;;;;;;;;;;17.58;64.87;98577.84;2089625;28;20359;-51
2022/05/07 03:16:19;;;;;;;;;;;;;;;17.58;64.80;98579.69;2092871;28;19932;-50
2022/05/07 03:17:23;;;;;;;;;;;;;;;17.56;64.89;98574.53;2096817;28;19928;-51
2022/05/07 03:18:23;;;;;;;;;;;;;;;17.56;64.75;98569.16;2097849;28;19983;-51
2022/05/07 03:19:25;;;;;;;;;;;;;;;17.57;64.62;98578.03;2096366;28;19924;-51
2022/05/07 03:20:25;;;;;;;;;;;;;;;17.55;64.79;98578.25;2100114;28;19939;-52
2022/05/07 03:21:27;;;;;;;;;;;;;;;17.56;64.66;98579.06;2100313;28;21217;-52
2022/05/07 03:22:28;;;;;;;;;;;;;;;17.56;64.72;98579.88;2098479;28;19928;-49
2022/05/07 03:23:29;;;;;;;;;;;;;;;17.55;64.73;98588.97;2097596;28;20433;-54
2022/05/07 03:24:30;;;;;;;;;;;;;;;17.56;64.75;98582.56;2096939;28;19975;-51
2022/05/07 03:25:32;;;;;;;;;;;;;;;17.56;64.67;98589.78;2093465;28;20453;-52
2022/05/07 03:26:34;;;;;;;;;;;;;;;17.57;64.60;98592.25;2094531;28;19931;-51
2022/05/07 03:27:34;;;;;;;;;;;;;;;17.58;64.93;98590.44;2097839;28;20405;-51
2022/05/07 03:28:36;;;;;;;;;;;;;;;17.57;64.58;98589.56;2099027;28;19928;-48
2022/05/07 03:29:37;;;;;;;;;;;;;;;17.56;64.68;98585.25;2096618;28;19928;-49
2022/05/07 03:30:38;;;;;;;;;;;;;;;17.56;64.68;98587.94;2093544;28;19924;-47
2022/05/07 03:31:40;;;;;;;;;;;;;;;17.56;64.76;98590.59;2093926;28;19932;-47
2022/05/07 03:32:40;;;;;;;;;;;;;;;17.57;64.76;98591.44;2099237;28;19928;-46
2022/05/07 03:33:42;;;;;;;;;;;;;;;17.56;64.60;98593.28;2098644;28;19930;-50
2022/05/07 03:34:43;;;;;;;;;;;;;;;17.57;64.68;98602.16;2099845;28;19938;-47
2022/05/07 03:35:44;;;;;;;;;;;;;;;17.59;64.60;98595.56;2100817;28;19930;-46
2022/05/07 03:36:45;;;;;;;;;;;;;;;17.57;64.58;98602.97;2098840;28;19967;-45
2022/05/07 03:37:46;;;;;;;;;;;;;;;17.57;64.77;98604.84;2101342;28;20007;-46
2022/05/07 03:38:47;;;;;;;;;;;;;;;17.58;64.48;98603.84;2097098;28;19940;-45
2022/05/07 03:39:49;;;;;;;;;;;;;;;17.56;64.71;98593.28;2092535;28;19933;-46
2022/05/07 03:40:52;;;;;;;;;;;;;;;17.55;64.81;98599.69;2101268;28;19932;-47
2022/05/07 03:41:54;;;;;;;;;;;;;;;17.55;64.87;98604.19;2098939;28;19932;-46
2022/05/07 03:42:55;;;;;;;;;;;;;;;17.55;64.68;98607.75;2100743;28;20553;-47
2022/05/07 03:43:56;;;;;;;;;;;;;;;17.57;64.48;98602.16;2099342;28;19936;-47
2022/05/07 03:44:57;;;;;;;;;;;;;;;17.54;64.70;98597.19;2098416;28;19954;-48
2022/05/07 03:45:59;;;;;;;;;;;;;;;17.53;64.78;98604.41;2101781;28;20545;-47
2022/05/07 03:46:59;;;;;;;;;;;;;;;17.53;64.76;98607.09;2097761;28;20386;-46
2022/05/07 03:48:01;;;;;;;;;;;;;;;17.54;64.52;98603.38;2097981;28;19924;-49
2022/05/07 03:49:02;;;;;;;;;;;;;;;17.55;64.51;98613.09;2096588;28;19932;-46
2022/05/07 03:50:03;;;;;;;;;;;;;;;17.55;64.63;98614.94;2100397;28;19936;-46
2022/05/07 03:51:05;;;;;;;;;;;;;;;17.53;64.61;98607.09;2098645;28;19924;-47
2022/05/07 03:53:31;;;;;;;;;;;;;;;17.54;64.82;98600.69;2093870;28;20991;-47
2022/05/07 03:54:33;;;;;;;;;;;;;;;17.55;64.63;98615.78;2098001;28;19932;-47
2022/05/07 03:55:34;;;;;;;;;;;;;;;17.57;64.61;98607.53;2096626;28;19933;-46
2022/05/07 03:56:36;;;;;;;;;;;;;;;17.55;64.45;98602.38;2096482;28;20627;-46
2022/05/07 03:57:37;;;;;;;;;;;;;;;17.54;64.70;98602.56;2098877;28;20557;-48
2022/05/07 03:58:38;;;;;;;;;;;;;;;17.55;64.44;98599.69;2098929;28;19945;-47
2022/05/07 03:59:39;;;;;;;;;;;;;;;17.54;64.60;98600.69;2095337;28;19956;-48
2022/05/07 04:00:40;;;;;;;;;;;;;;;17.54;64.56;98603.38;2093843;28;19928;-46
2022/05/07 04:01:41;;;;;;;;;;;;;;;17.56;64.49;98608.56;2099880;28;19973;-47
2022/05/07 04:02:43;;;;;;;;;;;;;;;17.54;64.71;98602.56;2097321;28;20087;-47
2022/05/07 04:03:43;;;;;;;;;;;;;;;17.54;64.63;98606.06;2097615;28;19928;-50
2022/05/07 04:04:45;;;;;;;;;;;;;;;17.53;64.71;98599.06;2099111;28;19924;-46
2022/05/07 04:05:45;;;;;;;;;;;;;;;17.53;64.55;98607.09;2097544;28;20499;-48
2022/05/07 04:06:47;;;;;;;;;;;;;;;17.53;64.53;98604.41;2100866;28;19924;-46
2022/05/07 04:07:47;;;;;;;;;;;;;;;17.54;64.68;98607.91;2090863;28;19924;-47
2022/05/07 04:08:49;;;;;;;;;;;;;;;17.54;64.69;98614.09;2096125;28;19932;-48
2022/05/07 04:09:54;;;;;;;;;;;;;;;17.53;64.49;98596.38;2095888;28;19976;-47
2022/05/07 04:10:55;;;;;;;;;;;;;;;17.52;64.48;98594.69;2099017;28;19931;-45
2022/05/07 04:11:57;;;;;;;;;;;;;;;17.53;64.72;98611.63;2095871;28;19951;-47
2022/05/07 04:12:59;;;;;;;;;;;;;;;17.53;64.48;98603.59;2095027;28;19986;-47
2022/05/07 04:13:59;;;;;;;;;;;;;;;17.54;64.37;98587.28;2099138;28;19928;-47
2022/05/07 04:15:01;;;;;;;;;;;;;;;17.53;64.49;98600.91;2097952;28;19958;-47
2022/05/07 04:16:02;;;;;;;;;;;;;;;17.54;64.39;98602.56;2098559;28;19963;-50
2022/05/07 04:17:03;;;;;;;;;;;;;;;17.54;64.37;98603.38;2094769;28;19944;-48
2022/05/07 04:18:05;;;;;;;;;;;;;;;17.51;64.55;98603.78;2096947;28;20016;-48
2022/05/07 04:19:05;;;;;;;;;;;;;;;17.51;64.74;98608.31;2095565;28;20577;-48
2022/05/07 04:20:07;;;;;;;;;;;;;;;17.50;64.47;98612.84;2100572;28;19931;-48
2022/05/07 04:21:10;;;;;;;;;;;;;;;17.50;64.57;98607.50;2095866;28;20630;-47
2022/05/07 04:22:11;;;;;;;;;;;;;;;17.51;64.62;98617.19;2091354;28;19933;-46
2022/05/07 04:23:12;;;;;;;;;;;;;;;17.53;64.65;98611.63;2096232;28;19928;-47
2022/05/07 04:24:13;;;;;;;;;;;;;;;17.52;64.44;98615.31;2097542;28;19950;-46
2022/05/07 04:25:14;;;;;;;;;;;;;;;17.52;64.63;98612.66;2100025;28;19928;-48
2022/05/07 04:26:16;;;;;;;;;;;;;;;17.53;64.71;98617.00;2099329;28;19928;-52
2022/05/07 04:27:18;;;;;;;;;;;;;;;17.53;64.72;98615.16;2099942;28;19935;-47
2022/05/07 04:28:19;;;;;;;;;;;;;;;17.52;64.54;98621.50;2098576;28;19924;-47
2022/05/07 04:29:20;;;;;;;;;;;;;;;17.51;64.53;98619.88;2094104;28;19932;-49
2022/05/07 04:30:22;;;;;;;;;;;;;;;17.52;64.41;98616.16;2093607;28;20042;-52
2022/05/07 04:31:23;;;;;;;;;;;;;;;17.51;64.58;98622.53;2095785;28;20943;-46
2022/05/07 04:32:24;;;;;;;;;;;;;;;17.50;64.76;98623.59;2100460;28;20014;-48
2022/05/07 04:33:26;;;;;;;;;;;;;;;17.50;64.65;98626.28;2096392;28;20692;-48
2022/05/07 04:34:28;;;;;;;;;;;;;;;17.52;64.52;98629.56;2098214;28;19979;-49
2022/05/07 04:35:29;;;;;;;;;;;;;;;17.51;64.59;98632.44;2093800;28;19971;-48
2022/05/07 04:36:30;;;;;;;;;;;;;;;17.51;64.67;98633.28;2096149;28;20087;-52
2022/05/07 04:37:31;;;;;;;;;;;;;;;17.54;64.34;98629.38;2094048;28;19928;-48
2022/05/07 04:38:32;;;;;;;;;;;;;;;17.53;64.42;98628.56;2099878;28;19939;-48
2022/05/07 04:39:34;;;;;;;;;;;;;;;17.54;64.33;98627.50;2096951;28;20370;-47
2022/05/07 04:40:35;;;;;;;;;;;;;;;17.54;64.56;98635.56;2097253;28;19935;-50
2022/05/07 04:41:36;;;;;;;;;;;;;;;17.52;64.44;98632.25;2097558;28;19928;-47
2022/05/07 04:42:40;;;;;;;;;;;;;;;17.52;64.53;98634.91;2094126;28;20002;-50
2022/05/07 04:43:40;;;;;;;;;;;;;;;17.52;64.49;98628.72;2097680;28;20803;-46
2022/05/07 04:44:42;;;;;;;;;;;;;;;17.52;64.41;98640.28;2097341;28;19930;-50
2022/05/07 04:45:43;;;;;;;;;;;;;;;17.50;64.64;98631.63;2096905;28;19928;-46
2022/05/07 04:46:44;;;;;;;;;;;;;;;17.49;64.52;98637.19;2098384;28;20011;-51
2022/05/07 04:47:45;;;;;;;;;;;;;;;17.49;64.52;98640.69;2097199;28;19932;-50
2022/05/07 04:48:46;;;;;;;;;;;;;;;17.49;64.45;98643.38;2096881;28;19974;-49
2022/05/07 04:49:47;;;;;;;;;;;;;;;17.47;64.52;98648.13;2097987;28;19978;-48
2022/05/07 04:50:48;;;;;;;;;;;;;;;17.48;64.56;98649.75;2098095;28;20863;-49
2022/05/07 04:51:50;;;;;;;;;;;;;;;17.48;64.48;98649.75;2093176;28;20485;-46
2022/05/07 04:52:52;;;;;;;;;;;;;;;17.49;64.58;98647.91;2092053;28;20005;-50
2022/05/07 04:53:53;;;;;;;;;;;;;;;17.48;64.63;98652.44;2099064;28;19928;-51
2022/05/07 04:54:54;;;;;;;;;;;;;;;17.49;64.51;98658.63;2098197;28;20107;-49
2022/05/07 04:55:55;;;;;;;;;;;;;;;17.46;64.49;98659.84;2095430;28;19928;-49
2022/05/07 04:56:57;;;;;;;;;;;;;;;17.48;64.63;98656.97;2098207;28;20410;-52
2022/05/07 04:57:59;;;;;;;;;;;;;;;17.48;64.70;98660.47;2098175;28;19924;-49
2022/05/07 04:59:00;;;;;;;;;;;;;;;17.47;64.68;98661.53;2098263;28;19928;-51
2022/05/07 05:00:03;;;;;;;;;;;;;;;17.46;64.52;98657.16;2097926;28;19966;-50
2022/05/07 05:01:03;;;;;;;;;;;;;;;17.46;64.54;98662.53;2096463;28;19970;-49
2022/05/07 05:02:05;;;;;;;;;;;;;;;17.46;64.67;98672.44;2097863;28;19932;-48
2022/05/07 05:03:07;;;;;;;;;;;;;;;17.45;64.66;98666.25;2097593;28;19932;-49
2022/05/07 05:04:08;;;;;;;;;;;;;;;17.46;64.52;98670.56;2100298;28;20298;-49
2022/05/07 05:05:09;;;;;;;;;;;;;;;17.46;64.55;98669.75;2099236;28;19960;-48
2022/05/07 05:06:10;;;;;;;;;;;;;;;17.46;64.47;98667.88;2094830;28;19924;-48
2022/05/07 05:07:11;;;;;;;;;;;;;;;17.46;64.46;98673.25;2095328;28;19950;-49
2022/05/07 05:08:12;;;;;;;;;;;;;;;17.48;64.45;98676.56;2097565;28;19946;-51
2022/05/07 05:09:14;;;;;;;;;;;;;;;17.48;64.55;98673.06;2098323;28;19928;-47
2022/05/07 05:10:14;;;;;;;;;;;;;;;17.48;64.60;98676.56;2095124;28;19931;-49
2022/05/07 05:11:16;;;;;;;;;;;;;;;17.46;64.60;98673.25;2096377;28;19970;-50
2022/05/07 05:12:17;;;;;;;;;;;;;;;17.47;64.41;98685.66;2095404;28;19974;-49
2022/05/07 05:13:20;;;;;;;;;;;;;;;17.46;64.58;98678.63;2097080;28;19978;-49
2022/05/07 05:15:41;;;;;;;;;;;;;;;17.48;64.35;98679.25;2095884;28;19924;-48
2022/05/07 05:16:41;;;;;;;;;;;;;;;17.49;64.43;98682.75;2100128;28;19928;-46
2022/05/07 05:17:43;;;;;;;;;;;;;;;17.50;64.41;98679.06;2095872;28;19928;-49
2022/05/07 05:18:43;;;;;;;;;;;;;;;17.47;64.35;98680.28;2094317;28;20351;-51
2022/05/07 05:19:45;;;;;;;;;;;;;;;17.48;64.58;98687.31;2096902;28;19936;-48
2022/05/07 05:20:46;;;;;;;;;;;;;;;17.46;64.35;98681.28;2094939;28;19939;-49
2022/05/07 05:21:47;;;;;;;;;;;;;;;17.47;64.54;98682.97;2098568;28;20016;-51
2022/05/07 05:22:49;;;;;;;;;;;;;;;17.47;64.32;98682.13;2099350;28;20694;-46
2022/05/07 05:23:49;;;;;;;;;;;;;;;17.46;64.46;98683.16;2099071;28;19924;-46
2022/05/07 05:24:51;;;;;;;;;;;;;;;17.44;64.48;98672.63;2100143;28;19928;-52
2022/05/07 05:25:51;;;;;;;;;;;;;;;17.45;64.49;98687.69;2097707;28;19928;-49
2022/05/07 05:26:53;;;;;;;;;;;;;;;17.44;64.48;98680.69;2101787;28;19924;-50
2022/05/07 05:27:53;;;;;;;;;;;;;;;17.45;64.65;98674.28;2083585;28;20907;-52
2022/05/07 05:28:57;;;;;;;;;;;;;;;17.43;64.44;98677.16;2096090;28;19928;-52
2022/05/07 05:29:57;;;;;;;;;;;;;;;17.43;64.51;98685.19;2089315;28;19925;-48
2022/05/07 05:30:59;;;;;;;;;;;;;;;17.45;64.59;98681.50;2091842;28;19928;-52